Terminal Aerodrome Forecast
Issued by NWS

Current Version | Previous Version | Graphics & Text | Print | Product List | Glossary On
Versions: 1 2 3 4 5 6 7 8 9 10 11 12 13 14 15 16 17 18 19
000
FTUS41 KPBZ 261124
TAFMGW
TAF
KMGW 261124Z 2612/2712 24002KT P6SM SCT080
     FM262200 22005KT P6SM BKN080
     FM270200 VRB03KT P6SM -RA VCTS BKN060CB
     FM270600 VRB03KT P6SM BKN060=

USA.gov is the U.S. government's official web portal to all federal, state and local government web resources and services.